Time;durP1;ratioP1;P1;durP2;ratioP2;P2;SDS_P1;SDS_P2;PMS_P1;PMS_P2;Temp;Humidity;BMP_temperature;BMP_pressure;BME280_temperature;BME280_humidity;BME280_pressure;Samples;Min_cycle;Max_cycle;Signal;HPM_P1;HPM_P2
2022/06/29 00:02:05;;;;;;;4.07;1.77;;;;;;;17.06;98.30;101714.56;5012188;28;20056;-28
2022/06/29 00:04:32;;;;;;;4.53;1.52;;;;;;;17.07;98.57;101717.06;5011776;28;20145;-31
2022/06/29 00:07:00;;;;;;;4.07;1.40;;;;;;;17.08;98.80;101712.25;5012181;28;20054;-31
2022/06/29 00:09:28;;;;;;;4.93;1.58;;;;;;;17.08;99.22;101710.28;5012268;28;20049;-30
2022/06/29 00:11:56;;;;;;;5.45;1.60;;;;;;;17.08;99.44;101713.09;5011274;28;20042;-29
2022/06/29 00:14:24;;;;;;;3.25;1.40;;;;;;;17.10;99.60;101707.13;5012135;28;20060;-28
2022/06/29 00:16:51;;;;;;;4.47;1.50;;;;;;;17.10;99.95;101707.13;5011519;28;20050;-30
2022/06/29 00:19:21;;;;;;;4.70;1.58;;;;;;;17.10;100.00;101704.31;5012026;28;20060;-31
2022/06/29 00:21:48;;;;;;;6.70;1.55;;;;;;;17.10;100.00;101704.31;5012253;28;20065;-32
2022/06/29 00:24:17;;;;;;;5.05;1.38;;;;;;;17.12;100.00;101705.66;5010980;28;20068;-31
2022/06/29 00:26:45;;;;;;;5.10;1.80;;;;;;;17.12;100.00;101699.19;5011893;28;20395;-28
2022/06/29 00:29:13;;;;;;;3.85;1.40;;;;;;;17.14;100.00;101699.69;5007193;28;20396;-28
2022/06/29 00:31:41;;;;;;;5.88;1.65;;;;;;;17.14;100.00;101700.53;5010943;28;20474;-28
2022/06/29 00:34:08;;;;;;;3.45;1.40;;;;;;;17.14;100.00;101694.88;5010614;28;20471;-28
2022/06/29 00:36:38;;;;;;;3.13;1.10;;;;;;;17.16;100.00;101686.94;5011901;28;20046;-29
2022/06/29 00:39:05;;;;;;;3.20;1.30;;;;;;;17.17;100.00;101688.59;5010420;28;20042;-34
2022/06/29 00:41:37;;;;;;;3.80;1.10;;;;;;;17.18;100.00;101684.63;5011830;28;20046;-35
2022/06/29 00:44:07;;;;;;;;;;;;;;;17.13;100.00;101683.94;5011924;28;20128;-28
2022/06/29 00:46:35;;;;;;;3.58;1.38;;;;;;;17.13;100.00;101670.66;5010946;28;19926;-29
2022/06/29 00:49:03;;;;;;;4.88;1.80;;;;;;;17.20;99.37;101676.66;5011125;28;20049;-34
2022/06/29 00:51:34;;;;;;;4.35;1.33;;;;;;;17.26;98.85;101673.69;5011710;28;20041;-31
2022/06/29 00:54:05;;;;;;;4.68;1.30;;;;;;;17.32;98.65;101678.06;5010615;28;20038;-28
2022/06/29 00:56:33;;;;;;;3.22;1.15;;;;;;;17.34;97.97;101673.75;5001028;28;20088;-31
2022/06/29 00:59:05;;;;;;;4.75;1.30;;;;;;;17.39;97.40;101667.94;5011024;28;20052;-29
2022/06/29 01:01:34;;;;;;;4.43;1.33;;;;;;;17.42;96.83;101675.75;5011389;28;20060;-29
2022/06/29 01:04:02;;;;;;;4.63;1.38;;;;;;;17.46;96.65;101667.47;5010989;28;20467;-29
2022/06/29 01:06:30;;;;;;;3.20;1.10;;;;;;;17.48;96.58;101670.81;5010457;28;20073;-32
2022/06/29 01:08:58;;;;;;;2.45;1.02;;;;;;;17.49;96.43;101667.66;5011130;28;20042;-28
2022/06/29 01:11:27;;;;;;;3.95;1.38;;;;;;;17.50;96.49;101672.16;5010218;28;20045;-34
2022/06/29 01:13:55;;;;;;;3.88;1.00;;;;;;;17.51;96.12;101665.34;5010458;28;20091;-32
2022/06/29 01:16:23;;;;;;;4.25;1.35;;;;;;;17.51;95.96;101665.34;5009798;28;20057;-33
2022/06/29 01:18:51;;;;;;;3.70;1.30;;;;;;;17.52;96.28;101666.19;5010898;28;20065;-29
2022/06/29 01:21:20;;;;;;;2.05;0.80;;;;;;;17.52;96.28;101667.00;5010140;28;20045;-29
2022/06/29 01:23:50;;;;;;;4.50;1.20;;;;;;;17.51;96.45;101662.53;5011052;28;20136;-30
2022/06/29 01:26:19;;;;;;;2.42;0.82;;;;;;;17.52;96.25;101666.19;5007872;28;20042;-34
2022/06/29 01:28:47;;;;;;;4.60;1.10;;;;;;;17.52;96.70;101663.38;5010388;28;20049;-31
2022/06/29 01:31:15;;;;;;;4.10;1.20;;;;;;;17.53;96.53;101665.03;5010366;28;20050;-28
2022/06/29 01:33:43;;;;;;;5.45;1.20;;;;;;;17.52;96.75;101661.38;5011072;28;20514;-28
2022/06/29 01:36:12;;;;;;;4.63;1.20;;;;;;;17.52;96.68;101667.00;5009770;28;20431;-29
2022/06/29 01:38:40;;;;;;;1.90;0.75;;;;;;;17.53;96.84;101665.03;5010820;28;20049;-36
2022/06/29 01:41:11;;;;;;;2.75;0.73;;;;;;;17.51;96.72;101654.06;5010329;28;20050;-28
2022/06/29 01:43:39;;;;;;;3.58;1.10;;;;;;;17.49;96.90;101667.66;5010161;28;20049;-28
2022/06/29 01:46:07;;;;;;;4.20;1.20;;;;;;;17.45;97.49;101649.72;5010379;28;20049;-28
2022/06/29 01:48:36;;;;;;;3.13;1.20;;;;;;;17.46;97.31;101651.38;5010072;28;20045;-33
2022/06/29 01:51:04;;;;;;;3.42;0.88;;;;;;;17.44;97.57;101645.22;5010481;28;20076;-32
2022/06/29 01:53:32;;;;;;;3.33;1.08;;;;;;;17.42;97.55;101649.53;5010645;28;20046;-28
2022/06/29 01:56:00;;;;;;;3.40;1.10;;;;;;;17.41;97.71;101654.34;5009755;28;20042;-29
2022/06/29 01:58:29;;;;;;;3.45;1.05;;;;;;;17.40;98.00;101651.84;5010396;28;20049;-28
2022/06/29 02:00:57;;;;;;;3.15;1.25;;;;;;;17.38;98.15;101642.91;5010960;28;20054;-29
2022/06/29 02:03:25;;;;;;;4.13;0.90;;;;;;;17.36;98.47;101648.88;5010038;28;20053;-33
2022/06/29 02:05:53;;;;;;;2.08;0.80;;;;;;;17.34;98.50;101642.72;5010266;28;20038;-29
2022/06/29 02:08:20;;;;;;;3.50;1.13;;;;;;;17.32;98.47;101638.56;5009433;28;20038;-31
2022/06/29 02:10:48;;;;;;;3.60;1.10;;;;;;;17.30;98.89;101636.06;5009735;28;20046;-32
2022/06/29 02:13:16;;;;;;;2.30;0.90;;;;;;;17.30;98.79;101632.41;5009211;28;20046;-28
2022/06/29 02:15:45;;;;;;;2.20;1.02;;;;;;;17.28;98.86;101635.53;5010474;28;20046;-28
2022/06/29 02:18:13;;;;;;;2.67;1.20;;;;;;;17.26;99.12;101635.03;5009608;28;20133;-28
2022/06/29 02:20:41;;;;;;;3.38;1.10;;;;;;;17.25;99.27;101630.56;5010295;28;20054;-29
2022/06/29 02:23:09;;;;;;;4.47;1.00;;;;;;;17.22;99.61;101628.38;5010238;28;20046;-28
2022/06/29 02:25:37;;;;;;;3.35;1.02;;;;;;;17.21;99.95;101629.53;5009864;28;20049;-28
2022/06/29 02:28:05;;;;;;;2.40;0.93;;;;;;;17.21;99.79;101632.34;5010118;28;20522;-28
2022/06/29 02:36:06;;;;;;;3.10;1.00;;;;;;;17.13;100.00;101622.72;5010411;28;20054;-28
2022/06/29 02:38:33;;;;;;;3.65;1.00;;;;;;;17.12;100.00;101621.06;5009604;28;20060;-28
2022/06/29 02:41:01;;;;;;;1.70;0.88;;;;;;;17.12;100.00;101611.75;5010230;28;20057;-31
2022/06/29 02:43:30;;;;;;;3.35;1.10;;;;;;;17.10;100.00;101614.06;5009729;28;20081;-28
2022/06/29 02:45:57;;;;;;;3.95;1.10;;;;;;;17.09;100.00;101610.41;5009516;28;20048;-29
2022/06/29 02:48:27;;;;;;;3.75;1.30;;;;;;;17.09;100.00;101610.41;5009421;28;20048;-38
2022/06/29 02:50:55;;;;;;;2.67;1.25;;;;;;;17.08;99.86;101611.56;5010269;28;20042;-28
2022/06/29 02:53:26;;;;;;;3.30;1.13;;;;;;;17.07;99.80;101609.91;5009039;28;20069;-35
2022/06/29 02:55:54;;;;;;;2.22;1.17;;;;;;;17.09;99.45;101606.75;5010075;28;20419;-33
2022/06/29 02:58:21;;;;;;;4.65;1.50;;;;;;;17.10;99.01;101603.63;5011649;28;20054;-28
2022/06/29 03:00:49;;;;;;;3.28;1.33;;;;;;;17.10;98.77;101602.78;5012700;28;20041;-28
2022/06/29 03:03:17;;;;;;;2.22;1.20;;;;;;;17.10;98.49;101597.97;5013389;28;20080;-28
2022/06/29 03:05:46;;;;;;;2.30;1.10;;;;;;;17.11;98.14;101596.81;5012664;28;20405;-27
2022/06/29 03:08:14;;;;;;;3.00;1.20;;;;;;;17.12;98.00;101594.84;5013107;28;20433;-29
2022/06/29 03:10:42;;;;;;;4.05;1.17;;;;;;;17.12;97.80;101589.19;5012885;28;20050;-32
2022/06/29 03:13:10;;;;;;;3.42;1.15;;;;;;;17.12;97.77;101589.19;5010358;28;20380;-31
2022/06/29 03:15:38;;;;;;;3.15;1.45;;;;;;;17.11;97.58;101585.53;5011657;28;20046;-29
2022/06/29 03:18:06;;;;;;;2.25;1.30;;;;;;;17.12;97.44;101589.19;5011720;28;20041;-29
2022/06/29 03:20:34;;;;;;;3.25;1.20;;;;;;;17.12;97.29;101586.38;5011605;28;20046;-30
2022/06/29 03:23:03;;;;;;;4.57;1.45;;;;;;;17.12;97.25;101583.56;5012552;28;20443;-31
2022/06/29 03:25:31;;;;;;;3.75;1.30;;;;;;;17.11;97.28;101579.91;5012386;28;20046;-30
2022/06/29 03:27:59;;;;;;;3.35;1.48;;;;;;;17.10;97.38;101578.25;5011934;28;20092;-32
2022/06/29 03:30:27;;;;;;;4.03;1.23;;;;;;;17.11;97.24;101570.59;5013150;28;20050;-28
2022/06/29 03:32:54;;;;;;;3.85;1.27;;;;;;;17.10;97.64;101569.78;5012921;28;20042;-28
2022/06/29 03:35:22;;;;;;;3.92;1.20;;;;;;;17.10;97.62;101564.13;5011822;28;20050;-30
2022/06/29 03:37:51;;;;;;;3.53;1.42;;;;;;;17.09;97.82;101562.47;5012870;28;20050;-30
2022/06/29 03:40:20;;;;;;;3.00;1.40;;;;;;;17.11;97.94;101564.97;5012256;28;20498;-35
2022/06/29 03:42:47;;;;;;;2.90;1.40;;;;;;;17.11;98.06;101564.97;5012112;28;20056;-28
2022/06/29 03:45:15;;;;;;;2.08;1.20;;;;;;;17.10;98.28;101566.97;5012465;28;20054;-32
2022/06/29 03:47:43;;;;;;;2.83;1.40;;;;;;;17.10;98.21;101564.13;5012653;28;20537;-32
2022/06/29 03:50:11;;;;;;;2.08;1.10;;;;;;;17.09;98.52;101565.28;5011308;28;20064;-29
2022/06/29 03:52:39;;;;;;;3.05;1.08;;;;;;;17.09;98.58;101554.00;5012791;28;20139;-31
2022/06/29 03:55:07;;;;;;;2.15;1.10;;;;;;;17.08;98.59;101558.00;5011343;28;20060;-28
2022/06/29 03:57:36;;;;;;;4.57;1.30;;;;;;;17.08;98.71;101559.97;5002159;28;20057;-33
2022/06/29 04:00:05;;;;;;;2.42;1.00;;;;;;;17.07;98.91;101558.31;5012264;28;20609;-28
2022/06/29 04:02:40;;;;;;;2.45;1.20;;;;;;;17.06;98.96;101553.81;5011936;28;20100;-31
2022/06/29 04:05:10;;;;;;;3.13;1.00;;;;;;;17.05;99.29;101555.81;5012496;28;20049;-28
2022/06/29 04:07:38;;;;;;;1.83;0.95;;;;;;;17.04;99.64;101553.31;5012319;28;20763;-28
2022/06/29 04:10:07;;;;;;;2.58;1.00;;;;;;;17.03;99.73;101546.00;5011491;28;20045;-36
2022/06/29 04:12:38;;;;;;;2.40;0.80;;;;;;;17.03;99.71;101551.66;5012347;28;20137;-30
2022/06/29 04:15:07;;;;;;;1.60;0.90;;;;;;;17.02;99.67;101539.53;5012005;28;20048;-30
2022/06/29 04:17:35;;;;;;;2.35;0.88;;;;;;;17.01;99.95;101540.69;5011432;28;20049;-32
2022/06/29 04:20:04;;;;;;;1.95;0.93;;;;;;;17.01;100.00;101543.53;5010998;28;20429;-30
2022/06/29 04:22:32;;;;;;;2.55;1.30;;;;;;;17.00;100.00;101541.03;5012034;28;20050;-35
2022/06/29 04:25:00;;;;;;;3.22;1.05;;;;;;;17.00;100.00;101543.84;5011298;28;20046;-33
2022/06/29 04:27:28;;;;;;;3.95;1.55;;;;;;;17.00;100.00;101549.47;5011251;28;20050;-28
2022/06/29 04:29:57;;;;;;;2.83;1.13;;;;;;;17.00;100.00;101541.03;5011844;28;20042;-29
2022/06/29 04:32:25;;;;;;;2.90;1.30;;;;;;;17.00;100.00;101543.84;5010482;28;20053;-28
2022/06/29 04:34:52;;;;;;;2.25;0.93;;;;;;;17.02;100.00;101539.53;5011697;28;20054;-30
2022/06/29 04:37:20;;;;;;;2.05;0.90;;;;;;;17.02;100.00;101539.53;5009739;28;20046;-28
2022/06/29 04:39:48;;;;;;;3.35;1.00;;;;;;;17.04;100.00;101531.59;5006963;28;20057;-29
2022/06/29 04:42:16;;;;;;;2.47;1.40;;;;;;;17.06;100.00;101536.91;5010583;28;20052;-35
2022/06/29 04:44:45;;;;;;;2.92;1.40;;;;;;;17.09;100.00;101533.44;5010043;28;20077;-28
2022/06/29 04:47:14;;;;;;;2.67;1.30;;;;;;;17.10;100.00;101524.66;5009377;28;20467;-31
2022/06/29 04:49:42;;;;;;;2.10;1.20;;;;;;;17.13;100.00;101528.81;5010576;28;20061;-34
2022/06/29 04:52:10;;;;;;;2.78;1.10;;;;;;;17.17;100.00;101532.66;5009775;28;20050;-35
2022/06/29 04:54:38;;;;;;;3.13;1.90;;;;;;;17.19;100.00;101521.84;5010284;28;20544;-30
2022/06/29 04:57:06;;;;;;;3.15;1.50;;;;;;;17.22;100.00;101527.66;5010162;28;20060;-37
2022/06/29 04:59:34;;;;;;;2.65;1.40;;;;;;;17.25;100.00;101520.53;5010653;28;20466;-31
2022/06/29 05:02:02;;;;;;;2.58;1.40;;;;;;;17.29;100.00;101521.56;5010825;28;20079;-36
2022/06/29 05:04:32;;;;;;;3.03;1.30;;;;;;;17.31;100.00;101516.41;5011275;28;20487;-29
2022/06/29 05:06:59;;;;;;;3.38;1.50;;;;;;;17.35;100.00;101508.97;5010055;28;20046;-30
2022/06/29 05:09:27;;;;;;;3.58;1.17;;;;;;;17.39;100.00;101514.75;5011030;28;20046;-30
2022/06/29 05:11:55;;;;;;;3.10;1.30;;;;;;;17.42;100.00;101512.09;5011082;28;20044;-30
2022/06/29 05:14:23;;;;;;;3.17;1.65;;;;;;;17.45;100.00;101514.28;5010358;28;20042;-31
2022/06/29 05:16:51;;;;;;;2.50;1.40;;;;;;;17.49;100.00;101504.00;5010859;28;20072;-34
2022/06/29 05:19:18;;;;;;;3.40;1.65;;;;;;;17.52;100.00;101508.97;5010372;28;20072;-31
2022/06/29 05:21:48;;;;;;;3.67;1.55;;;;;;;17.58;100.00;101504.81;5011176;28;20132;-28
2022/06/29 05:24:16;;;;;;;4.05;1.75;;;;;;;17.63;100.00;101508.63;5010511;28;20402;-28
2022/06/29 05:26:43;;;;;;;3.67;1.83;;;;;;;17.67;100.00;101504.03;5010073;28;20078;-33
2022/06/29 05:29:11;;;;;;;3.90;1.75;;;;;;;17.71;100.00;101499.41;5010861;28;20144;-29
2022/06/29 05:31:39;;;;;;;3.03;1.60;;;;;;;17.74;100.00;101498.72;5010038;28;20048;-28
2022/06/29 05:34:07;;;;;;;3.92;1.70;;;;;;;17.77;100.00;101504.56;5008998;28;20155;-32
2022/06/29 05:36:35;;;;;;;4.00;1.60;;;;;;;17.81;100.00;101504.69;5008486;28;20049;-29
2022/06/29 05:39:04;;;;;;;3.83;1.77;;;;;;;17.86;100.00;101505.34;5010218;28;20499;-31
2022/06/29 05:41:32;;;;;;;5.22;1.83;;;;;;;17.90;99.71;101497.06;5005661;28;20528;-32
2022/06/29 05:44:01;;;;;;;3.22;1.70;;;;;;;17.95;99.73;101499.72;5005128;28;20486;-38
2022/06/29 05:46:29;;;;;;;2.70;1.25;;;;;;;18.00;99.33;101502.34;5010803;28;20054;-32
2022/06/29 05:48:57;;;;;;;2.30;1.50;;;;;;;18.06;98.91;101492.56;5009685;28;20053;-29
2022/06/29 05:51:25;;;;;;;7.15;1.80;;;;;;;18.12;98.85;101485.56;5010942;28;20058;-30
2022/06/29 05:53:53;;;;;;;4.28;1.80;;;;;;;18.17;98.50;101479.75;5010280;28;20042;-30
2022/06/29 05:56:23;;;;;;;4.05;1.80;;;;;;;18.23;98.21;101489.69;5010145;28;20045;-34
2022/06/29 05:58:50;;;;;;;3.60;1.92;;;;;;;18.29;98.13;101478.22;5010487;28;20045;-35
2022/06/29 06:01:18;;;;;;;3.35;1.65;;;;;;;18.36;97.69;101487.84;5010862;28;20046;-28
2022/06/29 06:03:46;;;;;;;5.70;2.20;;;;;;;18.41;97.16;101479.16;5009664;28;20050;-35
2022/06/29 06:06:14;;;;;;;3.80;2.20;;;;;;;18.49;96.87;101477.50;5010123;28;20135;-34
2022/06/29 06:08:42;;;;;;;5.47;1.88;;;;;;;18.57;96.43;101480.31;5010061;28;20073;-28
2022/06/29 06:11:09;;;;;;;3.85;1.70;;;;;;;18.66;95.83;101480.28;5010314;28;20385;-28
2022/06/29 06:13:39;;;;;;;3.28;1.60;;;;;;;18.73;94.76;101483.44;5010353;28;20046;-29
2022/06/29 06:16:06;;;;;;;4.05;1.60;;;;;;;18.80;93.78;101482.88;5009494;28;20054;-29
2022/06/29 06:18:54;;;;;;;3.25;1.80;;;;;;;18.89;93.71;101484.50;4994498;28;20045;-28
2022/06/29 06:21:22;;;;;;;3.80;1.50;;;;;;;19.00;93.30;101478.44;5010223;28;20045;-31
2022/06/29 06:23:50;;;;;;;4.07;1.60;;;;;;;19.11;93.29;101479.72;5009534;28;20046;-29
2022/06/29 06:26:18;;;;;;;3.05;1.85;;;;;;;19.23;92.76;101477.81;5009969;28;20491;-32
2022/06/29 06:28:47;;;;;;;3.08;1.60;;;;;;;19.36;92.93;101477.91;5010291;28;20085;-32
2022/06/29 06:31:21;;;;;;;3.20;1.80;;;;;;;19.47;91.97;101476.31;5009292;28;20042;-34
2022/06/29 06:33:49;;;;;;;4.90;1.90;;;;;;;19.61;91.39;101477.72;5013392;28;20089;-30
2022/06/29 06:36:16;;;;;;;2.10;1.30;;;;;;;19.81;90.04;101480.91;5013472;28;20042;-30
2022/06/29 06:38:44;;;;;;;3.80;1.42;;;;;;;20.08;88.87;101488.81;5012962;28;20525;-29
2022/06/29 06:41:25;;;;;;;3.72;1.83;;;;;;;20.37;86.50;101481.41;5013529;28;20067;-36
2022/06/29 06:43:55;;;;;;;4.32;1.40;;;;;;;20.74;85.62;101470.94;5008712;28;20054;-30
2022/06/29 06:46:24;;;;;;;3.70;1.50;;;;;;;21.25;83.65;101467.38;5011031;28;20060;-32
2022/06/29 06:48:53;;;;;;;3.50;1.58;;;;;;;21.82;80.78;101468.31;5013996;28;20042;-31
2022/06/29 06:51:22;;;;;;;3.28;1.70;;;;;;;22.32;77.44;101464.91;5012911;28;20164;-34
2022/06/29 06:53:51;;;;;;;3.47;1.40;;;;;;;22.58;75.67;101464.41;5013770;28;20056;-30
2022/06/29 06:56:19;;;;;;;4.53;1.75;;;;;;;22.77;74.54;101473.06;5012991;28;20041;-36
2022/06/29 06:58:47;;;;;;;3.05;1.42;;;;;;;22.83;73.46;101473.59;5013303;28;20046;-29
2022/06/29 07:01:23;;;;;;;2.78;1.55;;;;;;;22.89;72.81;101478.66;5013178;28;20462;-29
2022/06/29 07:03:51;;;;;;;2.97;1.60;;;;;;;23.06;72.01;101476.59;5013698;28;20046;-29
2022/06/29 07:06:19;;;;;;;3.08;1.38;;;;;;;23.28;70.71;101479.59;5012586;28;20042;-36
2022/06/29 07:08:47;;;;;;;2.85;1.50;;;;;;;23.74;69.71;101481.91;5013316;28;20064;-35
2022/06/29 07:11:15;;;;;;;3.38;1.30;;;;;;;24.12;67.54;101481.88;5013308;28;20406;-31
2022/06/29 07:13:42;;;;;;;3.60;1.42;;;;;;;24.42;66.69;101481.25;5012648;28;20042;-31
2022/06/29 07:16:11;;;;;;;3.30;1.20;;;;;;;24.70;65.18;101482.63;5012952;28;20514;-29
2022/06/29 07:18:40;;;;;;;4.25;1.48;;;;;;;24.90;63.13;101474.81;5013189;28;20046;-33
2022/06/29 07:21:08;;;;;;;3.10;1.52;;;;;;;25.08;62.09;101471.44;5012449;28;20081;-30
2022/06/29 07:23:36;;;;;;;3.30;1.30;;;;;;;25.16;61.61;101464.66;5012868;28;20054;-30
2022/06/29 07:26:05;;;;;;;3.03;1.42;;;;;;;25.24;60.66;101466.41;5027621;28;20506;-32
2022/06/29 07:28:33;;;;;;;2.45;1.27;;;;;;;25.34;60.40;101466.56;5013143;28;20054;-29
2022/06/29 07:31:01;;;;;;;4.18;1.60;;;;;;;25.40;58.82;101464.19;5012993;28;20082;-29
2022/06/29 07:33:29;;;;;;;2.63;1.30;;;;;;;25.40;59.45;101459.28;5006839;28;20508;-33
2022/06/29 07:35:58;;;;;;;5.28;1.63;;;;;;;25.41;58.81;101454.41;5013349;28;20049;-36
2022/06/29 07:38:26;;;;;;;4.28;1.70;;;;;;;25.51;58.08;101462.31;5024296;28;20077;-32
2022/06/29 07:40:54;;;;;;;2.47;1.30;;;;;;;25.74;57.62;101456.53;5009065;28;20520;-31
2022/06/29 07:43:22;;;;;;;2.80;1.30;;;;;;;25.91;56.93;101455.94;5012286;28;20050;-39
2022/06/29 07:45:50;;;;;;;3.70;1.40;;;;;;;26.08;56.90;101457.38;5012888;28;20080;-31
2022/06/29 07:48:18;;;;;;;2.33;1.30;;;;;;;26.37;56.18;101455.69;5011620;28;20068;-32
2022/06/29 07:50:46;;;;;;;3.63;1.30;;;;;;;26.75;55.47;101455.25;5013039;28;20058;-37
2022/06/29 07:53:15;;;;;;;2.58;1.20;;;;;;;27.20;55.26;101441.69;5012424;28;20407;-33
2022/06/29 07:55:44;;;;;;;3.28;1.40;;;;;;;27.92;52.80;101442.94;5012076;28;20063;-34
2022/06/29 07:58:13;;;;;;;2.70;1.30;;;;;;;28.33;50.61;101444.31;5012393;28;20046;-32
2022/06/29 08:00:42;;;;;;;2.58;1.40;;;;;;;28.37;48.89;101448.03;4992977;28;20058;-31
2022/06/29 08:03:10;;;;;;;2.92;1.30;;;;;;;28.40;48.97;101446.38;5002300;28;20050;-38
2022/06/29 08:05:38;;;;;;;2.90;1.20;;;;;;;28.55;47.85;101441.47;5012699;28;20100;-32
2022/06/29 08:08:07;;;;;;;3.28;1.40;;;;;;;28.61;47.15;101446.41;5011596;28;20141;-33
2022/06/29 08:10:36;;;;;;;2.20;1.20;;;;;;;28.64;46.94;101445.59;5009272;28;20077;-38
2022/06/29 08:13:04;;;;;;;3.47;1.40;;;;;;;28.60;46.84;101439.00;5012170;28;20048;-35
2022/06/29 08:15:32;;;;;;;2.88;1.30;;;;;;;28.95;47.04;101443.16;4992222;28;20140;-32
2022/06/29 08:18:00;;;;;;;2.50;1.52;;;;;;;29.39;45.32;101446.41;4997814;28;20042;-32
2022/06/29 08:20:28;;;;;;;3.10;1.30;;;;;;;29.60;44.18;101442.66;5012208;28;20056;-33
2022/06/29 08:22:56;;;;;;;3.13;1.38;;;;;;;29.69;42.86;101445.91;5011668;28;20048;-39
2022/06/29 08:25:24;;;;;;;2.67;1.27;;;;;;;29.64;43.18;101440.59;5012069;28;20057;-32
2022/06/29 08:27:53;;;;;;;2.50;1.23;;;;;;;29.75;43.20;101441.38;5014975;28;20476;-30
2022/06/29 08:30:21;;;;;;;2.55;1.10;;;;;;;29.83;43.25;101440.09;5011165;28;20056;-31
2022/06/29 08:32:49;;;;;;;3.72;1.58;;;;;;;29.79;42.48;101439.28;5012064;28;20132;-34
2022/06/29 08:35:18;;;;;;;3.13;1.30;;;;;;;29.56;43.48;101438.97;5011633;28;20498;-35
2022/06/29 08:37:47;;;;;;;3.53;1.45;;;;;;;29.42;43.21;101439.00;5011392;28;20137;-31
2022/06/29 08:40:17;;;;;;;4.05;1.30;;;;;;;29.07;43.62;101434.13;5011491;28;20050;-36
2022/06/29 08:42:46;;;;;;;2.33;1.48;;;;;;;28.92;44.05;101433.31;5012143;28;20137;-32
2022/06/29 08:45:17;;;;;;;4.63;1.70;;;;;;;28.70;44.64;101437.38;5010816;28;20076;-29
2022/06/29 08:47:45;;;;;;;2.65;1.30;;;;;;;28.59;45.08;101433.66;5011708;28;20054;-34
2022/06/29 08:50:13;;;;;;;4.15;1.40;;;;;;;28.60;45.18;101433.25;5011327;28;20054;-36
2022/06/29 08:52:43;;;;;;;3.72;1.50;;;;;;;28.62;45.07;101427.94;5011498;28;20064;-35
2022/06/29 08:55:12;;;;;;;2.55;1.20;;;;;;;28.71;45.46;101434.09;5010438;28;20130;-32
2022/06/29 08:57:42;;;;;;;3.17;1.58;;;;;;;29.14;44.68;101429.19;5010835;28;20161;-30
2022/06/29 09:00:12;;;;;;;2.42;1.23;;;;;;;29.52;43.67;101425.84;5012196;28;20096;-34
2022/06/29 09:02:41;;;;;;;3.05;1.67;;;;;;;29.86;42.65;101421.19;5011485;28;20084;-37
2022/06/29 09:05:10;;;;;;;2.80;1.35;;;;;;;29.91;42.25;101419.94;5010472;28;20046;-30
2022/06/29 09:07:38;;;;;;;2.35;1.30;;;;;;;29.91;42.44;101419.94;5011547;28;20085;-33
2022/06/29 09:10:08;;;;;;;2.88;1.60;;;;;;;30.04;42.59;101418.22;5011250;28;20611;-34
2022/06/29 09:12:37;;;;;;;2.08;1.27;;;;;;;30.44;42.88;101423.31;5007158;28;20041;-29
2022/06/29 09:15:08;;;;;;;3.13;1.33;;;;;;;30.64;41.37;101417.03;5011108;28;20048;-35
2022/06/29 09:17:37;;;;;;;3.33;1.27;;;;;;;30.60;40.66;101422.00;5010949;28;20513;-38
2022/06/29 09:20:08;;;;;;;3.20;1.50;;;;;;;30.32;40.79;101412.31;5010207;28;20070;-34
2022/06/29 09:23:00;;;;;;;3.28;1.17;;;;;;;30.31;41.47;101409.84;5011147;28;20045;-30
2022/06/29 09:25:30;;;;;;;2.35;1.10;;;;;;;30.59;41.13;101414.59;5010658;28;20050;-38
2022/06/29 09:27:59;;;;;;;2.38;1.10;;;;;;;30.76;39.65;101408.72;5010017;28;20479;-40
2022/06/29 09:30:28;;;;;;;2.58;0.90;;;;;;;30.76;38.58;101413.66;5010626;28;20049;-31
2022/06/29 09:33:03;;;;;;;2.75;1.17;;;;;;;30.75;37.11;101412.84;5009096;28;20104;-32
2022/06/29 09:35:33;;;;;;;1.83;1.08;;;;;;;30.56;37.77;101410.53;5011022;28;20069;-38
2022/06/29 09:38:21;;;;;;;3.30;1.13;;;;;;;30.32;36.36;101411.50;5010658;28;20037;-34
2022/06/29 09:41:03;;;;;;;3.20;1.38;;;;;;;30.18;37.33;101409.50;5009919;28;20473;-41
2022/06/29 09:43:32;;;;;;;2.92;1.20;;;;;;;30.20;38.28;101409.91;5009857;28;20525;-31
2022/06/29 09:46:01;;;;;;;3.38;1.30;;;;;;;30.30;38.70;101409.03;5010584;28;20484;-33
2022/06/29 09:48:32;;;;;;;3.80;1.30;;;;;;;30.31;38.45;101404.09;5009760;28;20045;-32
2022/06/29 09:51:30;;;;;;;2.88;1.20;;;;;;;30.47;38.89;101405.22;5010882;28;20046;-39
2022/06/29 09:53:53;;;;;;;2.97;1.00;;;;;;;30.60;37.31;101414.19;5008693;28;20084;-41
2022/06/29 09:56:23;;;;;;;2.90;1.25;;;;;;;30.59;37.56;101403.06;5010545;28;20064;-39
2022/06/29 09:58:54;;;;;;;3.22;1.20;;;;;;;30.61;38.01;101403.47;5010504;28;20057;-30
2022/06/29 10:04:11;;;;;;;2.17;1.10;;;;;;;30.90;37.30;101402.00;5006142;28;20053;-32
2022/06/29 10:06:41;;;;;;;3.13;1.20;;;;;;;31.12;37.06;101394.00;5011518;28;20046;-34
2022/06/29 10:09:09;;;;;;;2.78;1.10;;;;;;;31.23;36.50;101399.63;5012760;28;20045;-33
2022/06/29 10:15:00;;;;;;;2.42;1.30;;;;;;;31.11;36.53;101390.28;5014755;28;20077;-32
2022/06/29 10:17:41;;;;;;;2.53;1.20;;;;;;;30.99;36.17;101396.53;5014387;28;20108;-30
2022/06/29 10:20:24;;;;;;;2.53;1.13;;;;;;;31.07;36.54;101389.47;5014471;28;20037;-36
2022/06/29 10:22:53;;;;;;;2.60;1.20;;;;;;;31.27;35.35;101397.53;5013550;28;20734;-40
2022/06/29 10:25:27;;;;;;;2.63;1.27;;;;;;;31.32;35.57;101392.13;5014638;28;20045;-30
2022/06/29 10:28:19;;;;;;;3.00;1.00;;;;;;;31.36;34.31;101389.19;5014174;28;20049;-34
2022/06/29 10:30:48;;;;;;;2.10;0.90;;;;;;;31.43;34.09;101389.09;5003871;28;20045;-35
2022/06/29 10:33:35;;;;;;;2.10;0.90;;;;;;;31.65;33.22;101387.59;5013994;28;20042;-32
2022/06/29 10:36:06;;;;;;;2.25;1.20;;;;;;;31.79;34.27;101383.72;5004421;28;20521;-30
2022/06/29 10:39:12;;;;;;;3.80;1.00;;;;;;;31.96;34.52;101388.44;5013765;28;20064;-34
2022/06/29 10:45:02;;;;;;;1.98;0.80;;;;;;;32.35;33.21;101375.53;5012912;28;20081;-32
2022/06/29 10:47:31;;;;;;;2.20;0.90;;;;;;;32.25;34.28;101380.19;4971503;28;20057;-35
2022/06/29 10:50:23;;;;;;;2.38;0.95;;;;;;;31.92;32.21;101381.91;5013057;28;20076;-37
2022/06/29 10:52:52;;;;;;;3.65;1.10;;;;;;;32.00;33.95;101368.16;4996598;28;20070;-39
2022/06/29 10:55:22;;;;;;;2.50;1.13;;;;;;;32.20;33.86;101369.13;5013758;28;20066;-36
2022/06/29 10:57:51;;;;;;;3.67;1.20;;;;;;;32.10;33.65;101370.09;5012809;28;20513;-39
2022/06/29 11:00:22;;;;;;;1.98;0.63;;;;;;;31.77;29.63;101368.94;5013800;28;20038;-31
2022/06/29 11:02:51;;;;;;;1.92;0.70;;;;;;;31.28;30.38;101367.44;5009344;28;20105;-38
2022/06/29 11:05:18;;;;;;;2.38;0.90;;;;;;;31.07;31.97;101362.69;5012044;28;20049;-31
2022/06/29 11:13:23;;;;;;;2.55;0.75;;;;;;;31.78;31.53;101356.91;5012958;28;20049;-36
2022/06/29 11:15:52;;;;;;;2.38;0.80;;;;;;;31.81;30.92;101358.13;5009269;28;20141;-31
2022/06/29 11:18:21;;;;;;;2.40;0.82;;;;;;;31.89;29.46;101350.19;5011797;28;20052;-35
2022/06/29 11:20:51;;;;;;;2.20;0.70;;;;;;;32.00;29.43;101342.19;5012776;28;20134;-38
2022/06/29 11:23:20;;;;;;;3.58;0.90;;;;;;;32.00;29.37;101354.56;5013485;28;20503;-41
2022/06/29 11:25:54;;;;;;;2.25;0.90;;;;;;;31.98;30.20;101351.28;5012239;28;20104;-30
2022/06/29 11:28:25;;;;;;;2.70;1.00;;;;;;;32.03;30.97;101341.31;5013314;28;20050;-32
2022/06/29 11:31:04;;;;;;;2.28;0.95;;;;;;;32.22;30.98;101336.94;5012714;28;20553;-34
2022/06/29 11:33:33;;;;;;;3.13;1.17;;;;;;;32.40;31.43;101343.22;5012344;28;20136;-33
2022/06/29 11:36:04;;;;;;;3.50;0.80;;;;;;;32.50;30.88;101345.94;5013059;28;20050;-31
2022/06/29 11:38:34;;;;;;;3.40;1.10;;;;;;;32.51;31.96;101336.03;5013070;28;20487;-38
2022/06/29 11:41:12;;;;;;;2.25;0.90;;;;;;;32.41;31.07;101328.34;5011923;28;20042;-30
2022/06/29 11:44:04;;;;;;;1.90;0.90;;;;;;;32.31;30.49;101329.34;5012912;28;20132;-31
2022/06/29 11:46:35;;;;;;;2.83;1.10;;;;;;;32.27;31.05;101331.47;5012008;28;20465;-40
2022/06/29 11:51:51;;;;;;;2.50;1.10;;;;;;;31.97;32.03;101331.53;5012531;28;20088;-32
2022/06/29 11:54:34;;;;;;;2.97;1.17;;;;;;;31.59;31.76;101336.53;5012122;28;20434;-33
2022/06/29 11:57:08;;;;;;;2.08;0.85;;;;;;;31.38;32.46;101329.81;5012271;28;20548;-38
2022/06/29 11:59:36;;;;;;;3.35;0.98;;;;;;;31.43;33.08;101342.94;5012752;28;20403;-38